Portada
METAR-TAF:

METAR-TAF

Aeroports :

Boscombe Down, Anglaterra

latitud: 51-10N, longitud: 001-45W, altitud: 124 m

Observació

L'informe es va fer fa 40 minuts, a les 15:50 UTC
Vent 10 kt del Sud-Oest
Temperatura 9°C
Humitat 81%
Pressió 1013 hPa
Visibilitat 10 km o més
Escasses núvols a una alçada de 1700 ft
Cel ennuvolat a una alçada de 2200 ft

METAR: EGDM 071550Z 22010KT 9999 FEW017 BKN022 09/06 Q1013 NOSIG RMK WHT WHT

Hora: 16:30 (16:30 UTC)

Pronòstic

L'informe es va fer fa 2 hores i 43 minuts, a les 13:47 UTC
Pronòstic vàlid del 07 a les 15 UTC al 07 a les 18 UTC
Vent 12 kt del Sud-Oest
Visibilitat 10 km o més
Cel ennuvolat a una alçada de 2000 ft

TAF: EGDM 071347Z 0715/0718 23012KT 9999 BKN020

Observacions i pronòstics meteorològics de més de 4000 aeroports (METAR i TAF).

Les estacions disponibles són els punts grocs i vermells al mapa.

Posi el ratolí al punt desitjat per veure el nom de l'estació.

Feu clic per veure les observacions i els pronòstics meteorològics.

Per canviar el mapa: feu clic els botons verds amb una creu de color negre per apropar; al botó verd amb un guió per allunyar la imatge; o en les fletxes verdes per a mapes adjacents.


METAR-TAF: